Time;durP1;ratioP1;P1;durP2;ratioP2;P2;SDS_P1;SDS_P2;PMS_P1;PMS_P2;Temp;Humidity;BMP_temperature;BMP_pressure;BME280_temperature;BME280_humidity;BME280_pressure;Samples;Min_cycle;Max_cycle;Signal;HPM_P1;HPM_P2
2023/05/05 00:01:37;;;;;;;31.00;16.60;;;;;;;;;;107735;1250;22571;-77
2023/05/05 00:04:03;;;;;;;29.00;16.50;;;;;;;;;;107695;1250;22559;-79
2023/05/05 00:06:30;;;;;;;29.40;16.60;;;;;;;;;;107695;1250;22555;-79
2023/05/05 00:08:57;;;;;;;29.90;16.90;;;;;;;;;;107682;1250;25406;-78
2023/05/05 00:11:24;;;;;;;24.30;16.10;;;;;;;;;;107689;1249;24205;-77
2023/05/05 00:13:51;;;;;;;25.90;16.80;;;;;;;;;;107793;1250;22545;-79
2023/05/05 00:16:17;;;;;;;25.60;16.30;;;;;;;;;;110908;1249;22345;-79
2023/05/05 00:18:43;;;;;;;26.80;16.30;;;;;;;;;;110867;1250;22370;-76
2023/05/05 00:21:10;;;;;;;25.70;14.90;;;;;;;;;;110298;1250;25278;-78
2023/05/05 00:23:36;;;;;;;26.20;15.80;;;;;;;;;;107724;1251;24359;-78
2023/05/05 00:26:02;;;;;;;21.10;13.10;;;;;;;;;;107738;1253;22518;-78
2023/05/05 00:28:29;;;;;;;21.20;13.30;;;;;;;;;;107690;1250;22849;-78
2023/05/05 00:30:55;;;;;;;20.70;13.10;;;;;;;;;;107732;1251;24222;-78
2023/05/05 00:33:22;;;;;;;23.70;13.90;;;;;;;;;;107750;1253;25217;-79
2023/05/05 00:35:48;;;;;;;22.60;13.10;;;;;;;;;;107668;1250;25347;-78
2023/05/05 00:38:15;;;;;;;22.90;13.60;;;;;;;;;;107724;1252;22530;-78
2023/05/05 00:40:41;;;;;;;28.50;14.20;;;;;;;;;;107699;1251;22548;-77
2023/05/05 00:43:07;;;;;;;19.10;12.30;;;;;;;;;;107726;1252;22943;-79
2023/05/05 00:45:36;;;;;;;21.40;13.10;;;;;;;;;;107730;1250;22630;-78
2023/05/05 00:48:02;;;;;;;25.10;12.90;;;;;;;;;;107708;1255;22514;-77
2023/05/05 00:50:29;;;;;;;24.00;13.50;;;;;;;;;;107669;1249;22520;-78
2023/05/05 00:52:57;;;;;;;22.00;14.00;;;;;;;;;;107763;1253;22952;-78
2023/05/05 00:55:24;;;;;;;26.50;16.30;;;;;;;;;;107704;1251;26353;-78
2023/05/05 00:57:51;;;;;;;28.20;14.30;;;;;;;;;;107667;1255;25074;-77
2023/05/05 01:00:17;;;;;;;25.60;14.30;;;;;;;;;;107716;1253;22539;-77
2023/05/05 01:02:43;;;;;;;24.80;14.60;;;;;;;;;;107897;1248;24234;-78
2023/05/05 01:05:10;;;;;;;24.10;14.40;;;;;;;;;;107782;1247;22528;-77
2023/05/05 01:07:36;;;;;;;25.80;13.40;;;;;;;;;;107739;1248;23632;-78
2023/05/05 01:10:06;;;;;;;23.40;14.10;;;;;;;;;;107790;1248;22543;-78
2023/05/05 01:12:45;;;;;;;22.40;13.30;;;;;;;;;;107940;1248;22869;-78
2023/05/05 01:15:11;;;;;;;23.10;13.70;;;;;;;;;;107696;1247;23728;-78
2023/05/05 01:17:41;;;;;;;21.70;13.10;;;;;;;;;;107892;1247;23048;-78
2023/05/05 01:20:10;;;;;;;22.70;14.30;;;;;;;;;;109652;1247;22288;-78
2023/05/05 01:22:37;;;;;;;;;;;;;;;;;;111035;1247;23191;-79
2023/05/05 01:25:03;;;;;;;22.90;14.10;;;;;;;;;;110996;1247;22834;-79
2023/05/05 01:27:40;;;;;;;25.40;14.30;;;;;;;;;;110990;1247;22457;-76
2023/05/05 01:30:09;;;;;;;26.90;16.50;;;;;;;;;;110845;1249;22248;-76
2023/05/05 01:32:35;;;;;;;;;;;;;;;;;;110889;1250;22315;-76
2023/05/05 01:35:13;;;;;;;26.10;14.00;;;;;;;;;;110832;1250;22509;-76
2023/05/05 01:37:39;;;;;;;24.50;14.50;;;;;;;;;;108248;1251;22515;-78
2023/05/05 01:40:08;;;;;;;24.10;14.90;;;;;;;;;;107707;1250;22528;-77
2023/05/05 01:42:34;;;;;;;25.90;14.90;;;;;;;;;;110921;1248;23034;-79
2023/05/05 01:45:02;;;;;;;23.80;14.10;;;;;;;;;;109154;1250;22528;-78
2023/05/05 01:47:29;;;;;;;23.30;14.90;;;;;;;;;;108275;1250;25430;-78
2023/05/05 01:49:55;;;;;;;28.00;16.50;;;;;;;;;;107719;1250;24179;-78
2023/05/05 01:52:22;;;;;;;25.90;15.20;;;;;;;;;;107725;1255;22513;-78
2023/05/05 01:54:48;;;;;;;25.90;15.20;;;;;;;;;;107764;1251;22857;-80
2023/05/05 01:57:14;;;;;;;24.20;14.60;;;;;;;;;;107700;1254;25356;-78
2023/05/05 01:59:41;;;;;;;27.90;15.40;;;;;;;;;;107636;1250;144510;-78
2023/05/05 02:02:08;;;;;;;29.60;16.00;;;;;;;;;;107888;1248;25245;-78
2023/05/05 02:04:35;;;;;;;24.60;13.90;;;;;;;;;;107877;1253;22615;-77
2023/05/05 02:07:01;;;;;;;26.60;14.20;;;;;;;;;;107899;1248;23047;-77
2023/05/05 02:09:28;;;;;;;21.70;14.00;;;;;;;;;;107746;1254;25248;-77
2023/05/05 02:11:55;;;;;;;24.40;11.70;;;;;;;;;;107729;1254;25371;-78
2023/05/05 02:14:22;;;;;;;21.40;13.40;;;;;;;;;;107692;1249;22651;-78
2023/05/05 02:16:48;;;;;;;24.00;13.80;;;;;;;;;;107833;1247;23504;-78
2023/05/05 02:19:15;;;;;;;22.30;12.00;;;;;;;;;;107695;1250;22701;-78
2023/05/05 02:21:41;;;;;;;21.30;13.10;;;;;;;;;;107696;1251;24259;-77
2023/05/05 02:24:07;;;;;;;29.10;16.20;;;;;;;;;;107867;1250;23272;-78
2023/05/05 02:26:34;;;;;;;23.70;14.40;;;;;;;;;;107708;1251;22524;-77
2023/05/05 02:29:01;;;;;;;25.50;13.40;;;;;;;;;;107898;1250;22867;-78
2023/05/05 02:31:27;;;;;;;24.60;14.00;;;;;;;;;;110906;1249;22303;-78
2023/05/05 02:33:54;;;;;;;19.50;12.30;;;;;;;;;;110758;1250;23196;-79
2023/05/05 02:36:21;;;;;;;20.70;13.20;;;;;;;;;;108596;1250;27400;-78
2023/05/05 02:38:50;;;;;;;22.30;12.80;;;;;;;;;;110850;1249;22464;-78
2023/05/05 02:41:17;;;;;;;21.80;11.50;;;;;;;;;;110893;1250;22670;-78
2023/05/05 02:43:43;;;;;;;23.90;13.60;;;;;;;;;;110727;1249;22290;-78
2023/05/05 02:46:10;;;;;;;17.80;11.60;;;;;;;;;;110891;1250;22345;-79
2023/05/05 02:48:36;;;;;;;18.00;11.60;;;;;;;;;;110888;1249;22282;-78
2023/05/05 02:51:03;;;;;;;20.90;12.60;;;;;;;;;;110879;1250;23024;-78
2023/05/05 02:53:29;;;;;;;22.90;13.90;;;;;;;;;;110887;1249;22424;-75
2023/05/05 02:55:56;;;;;;;17.00;11.40;;;;;;;;;;107900;1250;22551;-77
2023/05/05 02:58:29;;;;;;;19.40;12.20;;;;;;;;;;107701;1251;22933;-78
2023/05/05 03:01:07;;;;;;;22.20;12.30;;;;;;;;;;110053;1247;22609;-78
2023/05/05 03:03:37;;;;;;;19.00;12.10;;;;;;;;;;107645;1254;22534;-78
2023/05/05 03:06:10;;;;;;;19.10;11.50;;;;;;;;;;109996;1250;22505;-79
2023/05/05 03:08:41;;;;;;;18.70;11.90;;;;;;;;;;110644;1250;22256;-78
2023/05/05 03:11:12;;;;;;;17.00;10.90;;;;;;;;;;110755;1250;22196;-78
2023/05/05 03:13:39;;;;;;;18.50;11.40;;;;;;;;;;110618;1250;22479;-78
2023/05/05 03:16:05;;;;;;;16.90;11.00;;;;;;;;;;109878;1250;23914;-78
2023/05/05 03:18:36;;;;;;;17.90;11.10;;;;;;;;;;107617;1256;22721;-79
2023/05/05 03:21:07;;;;;;;20.30;11.80;;;;;;;;;;107614;1250;22539;-78
2023/05/05 03:23:34;;;;;;;19.60;11.10;;;;;;;;;;107592;1251;22563;-79
2023/05/05 03:26:00;;;;;;;20.40;12.00;;;;;;;;;;107653;1250;25493;-77
2023/05/05 03:28:27;;;;;;;19.80;11.00;;;;;;;;;;107663;1251;22515;-78
2023/05/05 03:30:54;;;;;;;21.80;13.00;;;;;;;;;;109664;1250;22261;-78
2023/05/05 03:33:20;;;;;;;21.30;13.30;;;;;;;;;;110860;1250;23191;-79
2023/05/05 03:35:46;;;;;;;17.70;12.10;;;;;;;;;;110873;1249;22208;-80
2023/05/05 03:38:14;;;;;;;18.20;10.40;;;;;;;;;;110878;1249;22283;-78
2023/05/05 03:40:40;;;;;;;19.90;11.70;;;;;;;;;;110885;1249;22305;-76
2023/05/05 03:43:06;;;;;;;17.10;11.30;;;;;;;;;;110843;1249;22212;-75
2023/05/05 03:45:33;;;;;;;23.20;12.10;;;;;;;;;;110859;1250;22409;-76
2023/05/05 03:47:59;;;;;;;25.80;11.80;;;;;;;;;;110726;1250;22494;-76
2023/05/05 03:50:26;;;;;;;16.60;11.50;;;;;;;;;;110865;1250;22304;-77
2023/05/05 03:52:52;;;;;;;21.50;10.90;;;;;;;;;;110862;1249;22111;-76
2023/05/05 03:55:18;;;;;;;27.50;13.00;;;;;;;;;;109193;1253;22530;-78
2023/05/05 03:57:45;;;;;;;16.90;11.10;;;;;;;;;;107691;1253;22698;-78
2023/05/05 04:00:11;;;;;;;19.70;12.80;;;;;;;;;;107720;1250;22564;-77
2023/05/05 04:02:37;;;;;;;16.50;11.00;;;;;;;;;;107940;1251;24253;-79
2023/05/05 04:05:04;;;;;;;21.40;12.10;;;;;;;;;;107828;1253;22522;-79
2023/05/05 04:07:30;;;;;;;26.20;12.10;;;;;;;;;;107860;1247;22645;-77
2023/05/05 04:09:56;;;;;;;14.80;9.90;;;;;;;;;;107781;1250;22533;-78
2023/05/05 04:12:23;;;;;;;17.50;11.00;;;;;;;;;;107929;1248;22699;-78
2023/05/05 04:14:49;;;;;;;15.90;10.30;;;;;;;;;;107782;1247;22527;-79
2023/05/05 04:17:15;;;;;;;18.30;11.60;;;;;;;;;;107895;1248;24267;-78
2023/05/05 04:19:42;;;;;;;16.60;10.00;;;;;;;;;;108346;1249;22724;-77
2023/05/05 04:22:08;;;;;;;17.60;10.50;;;;;;;;;;109071;1251;22524;-78
2023/05/05 04:24:35;;;;;;;16.00;10.20;;;;;;;;;;107807;1251;22536;-79
2023/05/05 04:27:02;;;;;;;15.40;11.60;;;;;;;;;;107925;1248;24852;-77
2023/05/05 04:29:28;;;;;;;17.50;11.70;;;;;;;;;;107762;1253;22521;-78
2023/05/05 04:31:54;;;;;;;21.10;12.60;;;;;;;;;;107692;1251;24240;-78
2023/05/05 04:34:21;;;;;;;29.60;15.20;;;;;;;;;;107655;1251;22556;-78
2023/05/05 04:36:47;;;;;;;19.40;13.00;;;;;;;;;;107708;1253;22510;-78
2023/05/05 04:39:13;;;;;;;23.80;15.00;;;;;;;;;;107638;1251;22525;-78
2023/05/05 04:41:40;;;;;;;27.70;15.60;;;;;;;;;;107689;1250;22536;-77
2023/05/05 04:44:06;;;;;;;22.70;15.30;;;;;;;;;;107624;1250;22532;-77
2023/05/05 04:46:33;;;;;;;24.50;14.90;;;;;;;;;;107633;1251;25205;-78
2023/05/05 04:49:00;;;;;;;26.60;14.50;;;;;;;;;;107628;1251;25291;-77
2023/05/05 04:51:26;;;;;;;25.80;15.30;;;;;;;;;;107793;1250;25352;-77
2023/05/05 04:53:52;;;;;;;25.40;14.50;;;;;;;;;;107702;1250;25252;-77
2023/05/05 04:56:19;;;;;;;23.60;14.50;;;;;;;;;;107682;1253;22543;-78
2023/05/05 04:58:45;;;;;;;25.00;14.00;;;;;;;;;;107645;1250;23188;-77
2023/05/05 05:01:11;;;;;;;23.50;13.40;;;;;;;;;;107713;1250;22608;-79
2023/05/05 05:03:38;;;;;;;15.10;10.20;;;;;;;;;;107852;1250;22521;-78
2023/05/05 05:06:04;;;;;;;21.40;11.20;;;;;;;;;;107709;1251;26413;-78
2023/05/05 05:08:30;;;;;;;18.40;10.60;;;;;;;;;;107633;1250;22603;-79
2023/05/05 05:10:57;;;;;;;18.10;10.70;;;;;;;;;;107682;1249;25504;-77
2023/05/05 05:13:24;;;;;;;17.90;11.30;;;;;;;;;;107649;1253;23265;-78
2023/05/05 05:15:50;;;;;;;16.00;10.30;;;;;;;;;;107669;1250;24230;-78
2023/05/05 05:18:16;;;;;;;20.90;10.70;;;;;;;;;;107765;1247;23291;-77
2023/05/05 05:20:43;;;;;;;15.70;11.20;;;;;;;;;;107637;1251;24194;-77
2023/05/05 05:23:09;;;;;;;18.30;10.90;;;;;;;;;;107643;1253;22511;-77
2023/05/05 05:25:36;;;;;;;20.00;10.10;;;;;;;;;;107674;1251;22991;-77
2023/05/05 05:28:02;;;;;;;37.60;11.20;;;;;;;;;;107692;1253;23285;-77
2023/05/05 05:30:28;;;;;;;18.30;10.40;;;;;;;;;;107641;1253;22522;-79
2023/05/05 05:32:54;;;;;;;16.60;9.50;;;;;;;;;;107769;1251;24186;-78
2023/05/05 05:35:21;;;;;;;13.70;9.90;;;;;;;;;;107661;1253;22967;-79
2023/05/05 05:37:49;;;;;;;23.20;12.00;;;;;;;;;;107652;1250;22636;-77
2023/05/05 05:40:15;;;;;;;19.20;9.70;;;;;;;;;;107628;1250;22973;-77
2023/05/05 05:42:42;;;;;;;25.20;10.10;;;;;;;;;;107774;1248;22667;-77
2023/05/05 05:45:08;;;;;;;18.60;9.80;;;;;;;;;;107726;1250;22531;-79
2023/05/05 05:47:35;;;;;;;16.50;11.10;;;;;;;;;;107720;1250;22524;-79
2023/05/05 05:50:03;;;;;;;15.80;11.10;;;;;;;;;;107642;1251;24073;-78
2023/05/05 05:52:30;;;;;;;16.10;11.40;;;;;;;;;;107678;1253;22525;-78
2023/05/05 05:54:56;;;;;;;21.00;9.40;;;;;;;;;;107692;1251;24348;-79
2023/05/05 05:57:23;;;;;;;30.10;11.10;;;;;;;;;;107657;1253;22542;-77
2023/05/05 05:59:49;;;;;;;14.60;8.80;;;;;;;;;;108386;1253;22529;-79
2023/05/05 06:02:16;;;;;;;16.50;10.00;;;;;;;;;;107714;1251;22511;-79
2023/05/05 06:04:42;;;;;;;12.60;8.80;;;;;;;;;;108142;1251;22546;-78
2023/05/05 06:07:09;;;;;;;20.20;10.10;;;;;;;;;;107669;1251;22515;-78
2023/05/05 06:09:35;;;;;;;13.80;9.30;;;;;;;;;;107730;1250;23209;-79
2023/05/05 06:12:02;;;;;;;17.00;10.10;;;;;;;;;;107949;1250;22506;-80
2023/05/05 06:14:29;;;;;;;18.40;10.40;;;;;;;;;;107859;1252;25208;-79
2023/05/05 06:16:55;;;;;;;14.80;8.10;;;;;;;;;;107780;1252;25378;-80
2023/05/05 06:19:21;;;;;;;15.90;7.90;;;;;;;;;;107832;1250;22514;-78
2023/05/05 06:21:48;;;;;;;14.30;9.40;;;;;;;;;;107901;1250;24189;-79
2023/05/05 06:24:14;;;;;;;15.80;8.10;;;;;;;;;;107807;1250;25331;-78
2023/05/05 06:26:40;;;;;;;10.60;7.70;;;;;;;;;;107849;1250;22637;-80
2023/05/05 06:29:07;;;;;;;23.30;9.30;;;;;;;;;;107716;1253;23248;-78
2023/05/05 06:31:33;;;;;;;11.90;7.20;;;;;;;;;;107888;1247;22515;-79
2023/05/05 06:33:59;;;;;;;14.30;7.60;;;;;;;;;;107909;1250;23540;-79
2023/05/05 06:36:26;;;;;;;12.80;7.10;;;;;;;;;;107708;1249;22569;-78
2023/05/05 06:38:53;;;;;;;9.20;7.20;;;;;;;;;;107800;1250;24209;-79
2023/05/05 06:41:20;;;;;;;13.40;7.30;;;;;;;;;;108551;1250;22521;-76
2023/05/05 06:43:46;;;;;;;12.30;6.60;;;;;;;;;;107941;1251;27619;-76
2023/05/05 06:46:12;;;;;;;20.20;7.30;;;;;;;;;;107878;1250;22871;-77
2023/05/05 06:48:39;;;;;;;14.30;7.00;;;;;;;;;;107964;1248;22602;-77
2023/05/05 06:51:05;;;;;;;32.10;8.60;;;;;;;;;;107888;1251;24094;-77
2023/05/05 06:53:31;;;;;;;42.30;10.00;;;;;;;;;;107924;1253;22984;-77
2023/05/05 06:55:58;;;;;;;14.90;7.70;;;;;;;;;;107896;1251;22702;-77
2023/05/05 06:58:24;;;;;;;12.30;6.50;;;;;;;;;;107910;1253;22524;-75
2023/05/05 07:00:50;;;;;;;11.60;6.10;;;;;;;;;;107894;1250;22515;-77
2023/05/05 07:03:17;;;;;;;24.60;8.00;;;;;;;;;;107853;1248;23769;-79
2023/05/05 07:05:43;;;;;;;10.50;6.70;;;;;;;;;;107801;1251;25197;-77
2023/05/05 07:08:10;;;;;;;9.10;7.30;;;;;;;;;;107741;1248;22508;-77
2023/05/05 07:10:36;;;;;;;10.10;6.90;;;;;;;;;;107727;1253;25208;-77
2023/05/05 07:13:03;;;;;;;23.20;7.90;;;;;;;;;;107739;1251;24308;-77
2023/05/05 07:15:29;;;;;;;10.40;6.10;;;;;;;;;;107716;1251;23286;-79
2023/05/05 07:17:55;;;;;;;13.10;6.90;;;;;;;;;;107741;1251;22572;-77
2023/05/05 07:20:22;;;;;;;8.40;6.50;;;;;;;;;;107693;1251;22508;-79
2023/05/05 07:22:48;;;;;;;9.40;6.30;;;;;;;;;;107713;1251;22512;-79
2023/05/05 07:25:15;;;;;;;9.10;6.50;;;;;;;;;;108429;1250;22519;-80
2023/05/05 07:27:41;;;;;;;6.40;5.30;;;;;;;;;;107631;1253;23856;-79
2023/05/05 07:30:08;;;;;;;9.40;5.00;;;;;;;;;;107728;1251;22521;-79
2023/05/05 07:32:34;;;;;;;9.30;6.20;;;;;;;;;;109206;1253;25345;-78
2023/05/05 07:35:01;;;;;;;10.60;5.30;;;;;;;;;;107652;1251;22619;-78
2023/05/05 07:37:27;;;;;;;7.60;4.40;;;;;;;;;;107633;1251;25351;-78
2023/05/05 07:39:53;;;;;;;5.30;4.00;;;;;;;;;;107612;1251;22504;-78
2023/05/05 07:42:20;;;;;;;7.70;4.40;;;;;;;;;;107645;1250;22548;-79
2023/05/05 07:44:46;;;;;;;7.80;4.30;;;;;;;;;;108296;1251;22525;-78
2023/05/05 07:47:12;;;;;;;7.90;4.40;;;;;;;;;;107654;1253;25310;-78
2023/05/05 07:49:39;;;;;;;5.30;3.80;;;;;;;;;;108635;1250;22533;-78
2023/05/05 07:52:05;;;;;;;6.00;4.00;;;;;;;;;;107653;1250;22541;-80
2023/05/05 07:54:32;;;;;;;9.10;4.50;;;;;;;;;;107714;1248;22522;-80
2023/05/05 07:56:58;;;;;;;7.40;4.10;;;;;;;;;;107635;1251;24341;-78
2023/05/05 07:59:24;;;;;;;10.50;4.30;;;;;;;;;;107711;1250;22947;-79
2023/05/05 08:01:51;;;;;;;7.00;3.70;;;;;;;;;;107779;1252;25255;-79
2023/05/05 08:04:17;;;;;;;6.80;4.50;;;;;;;;;;107711;1253;22530;-78
2023/05/05 08:06:43;;;;;;;7.90;4.10;;;;;;;;;;107859;1253;22535;-80
2023/05/05 08:09:10;;;;;;;17.00;5.40;;;;;;;;;;108040;1253;22508;-78
2023/05/05 08:11:37;;;;;;;13.00;6.30;;;;;;;;;;107788;1251;25337;-80
2023/05/05 08:14:03;;;;;;;8.00;5.60;;;;;;;;;;107672;1251;22533;-78
2023/05/05 08:16:29;;;;;;;13.30;5.70;;;;;;;;;;107711;1251;24196;-80
2023/05/05 08:18:56;;;;;;;26.00;7.50;;;;;;;;;;108884;1251;22598;-78
2023/05/05 08:21:22;;;;;;;20.60;14.20;;;;;;;;;;107875;1251;25496;-80
2023/05/05 08:23:48;;;;;;;12.70;5.90;;;;;;;;;;107719;1251;22872;-79
2023/05/05 08:26:15;;;;;;;11.40;6.90;;;;;;;;;;107750;1251;22508;-80
2023/05/05 08:28:41;;;;;;;16.20;4.90;;;;;;;;;;107767;1251;22537;-78
2023/05/05 08:31:08;;;;;;;8.90;4.50;;;;;;;;;;107663;1253;22518;-78
2023/05/05 08:33:34;;;;;;;6.20;4.30;;;;;;;;;;107662;1251;22547;-80
2023/05/05 08:36:00;;;;;;;7.50;4.60;;;;;;;;;;107680;1248;22538;-79
2023/05/05 08:38:27;;;;;;;8.20;4.60;;;;;;;;;;107746;1255;25070;-80
2023/05/05 08:40:53;;;;;;;8.70;4.20;;;;;;;;;;107815;1253;22531;-80
2023/05/05 08:43:21;;;;;;;9.10;4.30;;;;;;;;;;107949;1249;22528;-79
2023/05/05 08:45:47;;;;;;;;;;;;;;;;;;108003;1253;22625;-81
2023/05/05 08:48:14;;;;;;;6.40;3.80;;;;;;;;;;107744;1251;23013;-79
2023/05/05 08:50:40;;;;;;;4.70;3.40;;;;;;;;;;107891;1255;44389;-80
2023/05/05 08:53:08;;;;;;;8.00;3.60;;;;;;;;;;107655;1248;59641;-77
2023/05/05 08:55:34;;;;;;;5.10;3.60;;;;;;;;;;107816;1253;39472;-79
2023/05/05 08:58:04;;;;;;;8.10;5.00;;;;;;;;;;107834;1250;22545;-77
2023/05/05 09:00:30;;;;;;;6.60;3.80;;;;;;;;;;107648;1254;25386;-77
2023/05/05 09:02:57;;;;;;;6.90;3.90;;;;;;;;;;107569;1253;22532;-79
2023/05/05 09:05:23;;;;;;;4.80;3.30;;;;;;;;;;107697;1253;22515;-81
2023/05/05 09:07:50;;;;;;;4.00;3.50;;;;;;;;;;107680;1251;22512;-80
2023/05/05 09:10:16;;;;;;;6.10;3.20;;;;;;;;;;108187;1251;22744;-77
2023/05/05 09:12:43;;;;;;;4.10;3.40;;;;;;;;;;108225;1248;22518;-79
2023/05/05 09:15:10;;;;;;;5.50;3.90;;;;;;;;;;108172;1253;25379;-81
2023/05/05 09:17:37;;;;;;;9.20;4.40;;;;;;;;;;108320;1253;22595;-78
2023/05/05 09:20:07;;;;;;;6.80;3.10;;;;;;;;;;108130;1253;25431;-81
2023/05/05 09:22:37;;;;;;;4.60;3.70;;;;;;;;;;107697;1248;25377;-81
2023/05/05 09:25:13;;;;;;;3.70;2.70;;;;;;;;;;107749;1252;22516;-80
2023/05/05 09:27:40;;;;;;;5.40;3.70;;;;;;;;;;107616;1253;24215;-78
2023/05/05 09:30:07;;;;;;;7.70;4.10;;;;;;;;;;107696;1254;22580;-79
2023/05/05 09:32:46;;;;;;;5.40;3.80;;;;;;;;;;108258;1252;22605;-79
2023/05/05 09:35:13;;;;;;;8.00;2.90;;;;;;;;;;108169;1248;22568;-79
2023/05/05 09:37:39;;;;;;;3.80;2.80;;;;;;;;;;108176;1251;25322;-82
2023/05/05 09:40:07;;;;;;;3.80;3.20;;;;;;;;;;108065;1253;22542;-79
2023/05/05 09:42:35;;;;;;;87.70;9.50;;;;;;;;;;108141;1247;23302;-79
2023/05/05 09:45:03;;;;;;;5.60;3.20;;;;;;;;;;108171;1253;22537;-79
2023/05/05 09:47:32;;;;;;;4.00;3.00;;;;;;;;;;108015;1253;24187;-83
2023/05/05 09:49:59;;;;;;;3.00;2.60;;;;;;;;;;108068;1252;26455;-82
2023/05/05 09:52:26;;;;;;;5.50;3.50;;;;;;;;;;108086;1247;22511;-80
2023/05/05 09:54:53;;;;;;;4.80;2.90;;;;;;;;;;108258;1247;22517;-83
2023/05/05 09:57:26;;;;;;;7.80;2.70;;;;;;;;;;108144;1251;26503;-82
2023/05/05 09:59:58;;;;;;;5.10;2.80;;;;;;;;;;108186;1248;23166;-82
2023/05/05 10:02:34;;;;;;;15.50;11.70;;;;;;;;;;108100;1247;25428;-80
2023/05/05 10:05:11;;;;;;;3.70;2.60;;;;;;;;;;108194;1247;22612;-82
2023/05/05 10:07:39;;;;;;;4.30;2.50;;;;;;;;;;108188;1251;24341;-80
2023/05/05 10:10:07;;;;;;;4.80;2.90;;;;;;;;;;108263;1250;22525;-79
2023/05/05 10:12:35;;;;;;;4.00;2.80;;;;;;;;;;108006;1251;22521;-82
2023/05/05 10:15:02;;;;;;;5.20;2.50;;;;;;;;;;108110;1248;23814;-79
2023/05/05 10:17:32;;;;;;;4.30;2.40;;;;;;;;;;108107;1248;25387;-79
2023/05/05 10:19:59;;;;;;;6.00;2.10;;;;;;;;;;108321;1249;22514;-79
2023/05/05 10:22:25;;;;;;;3.40;2.40;;;;;;;;;;108270;1247;22678;-79
2023/05/05 10:24:54;;;;;;;6.90;4.10;;;;;;;;;;108084;1251;22528;-78
2023/05/05 10:27:21;;;;;;;13.90;3.70;;;;;;;;;;108251;1254;23963;-82
2023/05/05 10:29:52;;;;;;;2.70;2.10;;;;;;;;;;108287;1247;22650;-79
2023/05/05 10:32:35;;;;;;;8.20;2.20;;;;;;;;;;108458;1248;22625;-82
2023/05/05 10:35:02;;;;;;;3.70;3.10;;;;;;;;;;108936;1251;23317;-79
2023/05/05 10:37:28;;;;;;;10.60;3.30;;;;;;;;;;108673;1251;22518;-79
2023/05/05 10:39:56;;;;;;;3.70;2.20;;;;;;;;;;108528;1247;24184;-79
2023/05/05 10:42:23;;;;;;;7.20;2.20;;;;;;;;;;108487;1253;23241;-79
2023/05/05 10:44:50;;;;;;;3.80;2.50;;;;;;;;;;108501;1251;22742;-79
2023/05/05 10:47:16;;;;;;;2.70;2.00;;;;;;;;;;108441;1250;22568;-82
2023/05/05 10:49:47;;;;;;;7.50;2.30;;;;;;;;;;108697;1247;24215;-79
2023/05/05 10:52:32;;;;;;;5.20;2.30;;;;;;;;;;108658;1247;22527;-79
2023/05/05 10:55:08;;;;;;;5.00;2.50;;;;;;;;;;108850;1251;23173;-79
2023/05/05 10:57:35;;;;;;;51.60;6.20;;;;;;;;;;108570;1251;22670;-82
2023/05/05 11:00:03;;;;;;;4.20;2.90;;;;;;;;;;108591;1250;22688;-79
2023/05/05 11:02:30;;;;;;;3.00;1.90;;;;;;;;;;108438;1248;22706;-79
2023/05/05 11:05:03;;;;;;;8.50;2.80;;;;;;;;;;108380;1248;22579;-79
2023/05/05 11:07:29;;;;;;;5.90;2.80;;;;;;;;;;108390;1248;24374;-82
2023/05/05 11:10:02;;;;;;;5.70;2.60;;;;;;;;;;108255;1247;24371;-81
2023/05/05 11:12:29;;;;;;;5.00;2.20;;;;;;;;;;108276;1251;22519;-79
2023/05/05 11:15:14;;;;;;;3.30;2.10;;;;;;;;;;108372;1253;22566;-79
2023/05/05 11:17:47;;;;;;;2.40;2.00;;;;;;;;;;108173;1247;23729;-80
2023/05/05 11:20:13;;;;;;;3.10;2.40;;;;;;;;;;108250;1251;23263;-80
2023/05/05 11:23:02;;;;;;;4.20;2.00;;;;;;;;;;108095;1253;22573;-79
2023/05/05 11:25:39;;;;;;;2.20;2.00;;;;;;;;;;108209;1248;23039;-83
2023/05/05 11:28:06;;;;;;;4.10;2.20;;;;;;;;;;108164;1249;23086;-80
2023/05/05 11:30:33;;;;;;;4.40;1.90;;;;;;;;;;108195;1247;23405;-83
2023/05/05 11:33:18;;;;;;;6.30;2.40;;;;;;;;;;108226;1253;22532;-79
2023/05/05 11:35:55;;;;;;;5.30;2.40;;;;;;;;;;108123;1248;22689;-79
2023/05/05 11:38:22;;;;;;;4.40;1.90;;;;;;;;;;107994;1251;22552;-79
2023/05/05 11:40:48;;;;;;;5.10;1.60;;;;;;;;;;108098;1250;22517;-78
2023/05/05 11:43:17;;;;;;;2.80;2.00;;;;;;;;;;108009;1251;22545;-79
2023/05/05 11:45:43;;;;;;;3.30;2.30;;;;;;;;;;108094;1248;22518;-79
2023/05/05 11:48:22;;;;;;;4.40;2.30;;;;;;;;;;108302;1248;22577;-79
2023/05/05 11:50:48;;;;;;;3.10;1.90;;;;;;;;;;108065;1253;22531;-83
2023/05/05 11:53:15;;;;;;;4.10;2.30;;;;;;;;;;108294;1251;22533;-79
2023/05/05 11:55:41;;;;;;;4.50;2.10;;;;;;;;;;107997;1250;22655;-78
2023/05/05 11:58:17;;;;;;;3.50;1.90;;;;;;;;;;108016;1251;23213;-82
2023/05/05 12:00:44;;;;;;;2.40;1.80;;;;;;;;;;108149;1248;22587;-82
2023/05/05 12:03:10;;;;;;;3.70;2.30;;;;;;;;;;108217;1248;22517;-82
2023/05/05 12:05:36;;;;;;;3.60;1.90;;;;;;;;;;108088;1250;24243;-79
2023/05/05 12:08:03;;;;;;;3.70;2.20;;;;;;;;;;108029;1251;22608;-79
2023/05/05 12:10:29;;;;;;;4.50;1.90;;;;;;;;;;108193;1247;24980;-79
2023/05/05 12:12:57;;;;;;;3.70;2.30;;;;;;;;;;108143;1247;22580;-79
2023/05/05 12:15:27;;;;;;;3.90;2.80;;;;;;;;;;108155;1248;22671;-79
2023/05/05 12:17:53;;;;;;;2.20;2.00;;;;;;;;;;108305;1249;22526;-80
2023/05/05 12:20:27;;;;;;;4.60;1.90;;;;;;;;;;108464;1251;22585;-79
2023/05/05 12:23:01;;;;;;;4.80;1.70;;;;;;;;;;108444;1248;22519;-82
2023/05/05 12:25:34;;;;;;;3.60;2.00;;;;;;;;;;108509;1250;23265;-79
2023/05/05 12:28:00;;;;;;;5.80;2.10;;;;;;;;;;108568;1247;23068;-79
2023/05/05 12:30:27;;;;;;;4.50;2.20;;;;;;;;;;108292;1251;22847;-83
2023/05/05 12:33:00;;;;;;;5.60;1.90;;;;;;;;;;108532;1253;22533;-82
2023/05/05 12:35:27;;;;;;;4.60;1.90;;;;;;;;;;108442;1250;24247;-82
2023/05/05 12:37:53;;;;;;;2.40;2.10;;;;;;;;;;108460;1247;22562;-82
2023/05/05 12:40:38;;;;;;;4.70;1.80;;;;;;;;;;108418;1251;22524;-82
2023/05/05 12:43:05;;;;;;;3.20;2.20;;;;;;;;;;108416;1247;22525;-82
2023/05/05 12:45:31;;;;;;;4.70;2.20;;;;;;;;;;108216;1251;22522;-79
2023/05/05 12:47:57;;;;;;;3.40;1.90;;;;;;;;;;108059;1248;22561;-81
2023/05/05 12:50:33;;;;;;;3.20;1.90;;;;;;;;;;108275;1250;25294;-79
2023/05/05 12:52:59;;;;;;;5.00;2.00;;;;;;;;;;108164;1250;24310;-79
2023/05/05 12:55:38;;;;;;;5.80;1.80;;;;;;;;;;108217;1248;22658;-79
2023/05/05 12:58:05;;;;;;;4.60;2.00;;;;;;;;;;108201;1247;25420;-78
2023/05/05 13:00:31;;;;;;;4.10;1.90;;;;;;;;;;108088;1250;24219;-78
2023/05/05 13:02:58;;;;;;;9.30;2.00;;;;;;;;;;108181;1251;22605;-81
2023/05/05 13:05:31;;;;;;;2.30;1.60;;;;;;;;;;108089;1250;25358;-81
2023/05/05 13:07:57;;;;;;;2.70;1.80;;;;;;;;;;108118;1251;24926;-79
2023/05/05 13:10:24;;;;;;;4.60;2.00;;;;;;;;;;108066;1253;22521;-81
2023/05/05 13:12:53;;;;;;;2.10;1.30;;;;;;;;;;108252;1248;22526;-81
2023/05/05 13:15:19;;;;;;;4.20;1.50;;;;;;;;;;108196;1250;23003;-79
2023/05/05 13:17:46;;;;;;;5.00;1.50;;;;;;;;;;108163;1251;23211;-84
2023/05/05 13:20:12;;;;;;;5.60;1.60;;;;;;;;;;108318;1247;22501;-79
2023/05/05 13:22:39;;;;;;;3.80;2.00;;;;;;;;;;108263;1250;25283;-82
2023/05/05 13:25:06;;;;;;;2.30;1.70;;;;;;;;;;108213;1248;25017;-79
2023/05/05 13:27:32;;;;;;;4.70;1.50;;;;;;;;;;108012;1253;25564;-78
2023/05/05 13:29:59;;;;;;;2.10;1.30;;;;;;;;;;108074;1248;22518;-81
2023/05/05 13:32:25;;;;;;;2.90;1.70;;;;;;;;;;108250;1248;23175;-82
2023/05/05 13:34:51;;;;;;;7.30;1.90;;;;;;;;;;108168;1251;25309;-79
2023/05/05 13:37:18;;;;;;;4.80;1.40;;;;;;;;;;108150;1253;23081;-79
2023/05/05 13:39:44;;;;;;;4.60;1.60;;;;;;;;;;108058;1251;25367;-79
2023/05/05 13:42:11;;;;;;;5.20;2.00;;;;;;;;;;108045;1250;22530;-81
2023/05/05 13:44:37;;;;;;;4.30;1.50;;;;;;;;;;108016;1247;25350;-79
2023/05/05 13:47:04;;;;;;;3.80;1.60;;;;;;;;;;108206;1247;22569;-79
2023/05/05 13:49:30;;;;;;;3.00;1.80;;;;;;;;;;108441;1250;22530;-79
2023/05/05 13:51:57;;;;;;;5.00;1.60;;;;;;;;;;107999;1253;22549;-79
2023/05/05 13:54:23;;;;;;;3.40;1.50;;;;;;;;;;108167;1248;23234;-81
2023/05/05 13:56:50;;;;;;;4.30;1.90;;;;;;;;;;108288;1248;26502;-81
2023/05/05 13:59:16;;;;;;;5.10;1.70;;;;;;;;;;108284;1248;133919;-77
2023/05/05 14:01:42;;;;;;;2.10;1.40;;;;;;;;;;108412;1247;22529;-78
2023/05/05 14:04:08;;;;;;;6.60;1.70;;;;;;;;;;108331;1249;22522;-81
2023/05/05 14:06:35;;;;;;;2.70;1.30;;;;;;;;;;107780;1248;22564;-80
2023/05/05 14:09:04;;;;;;;2.10;1.60;;;;;;;;;;107719;1251;22527;-80
2023/05/05 14:11:30;;;;;;;2.70;1.80;;;;;;;;;;107691;1249;24119;-78
2023/05/05 14:13:57;;;;;;;6.50;2.50;;;;;;;;;;107720;1251;22524;-81
2023/05/05 14:16:23;;;;;;;3.60;1.80;;;;;;;;;;107874;1250;25472;-81
2023/05/05 14:18:49;;;;;;;2.90;1.60;;;;;;;;;;107904;1248;22544;-78
2023/05/05 14:21:16;;;;;;;4.00;1.70;;;;;;;;;;107916;1247;23630;-81